sensor_id;sensor_type;location;lat;lon;timestamp;P1;durP1;ratioP1;P2;durP2;ratioP2
67156;SDS011;54086;50.126;8.710;2022-11-20T00:00:27;21.90;;;11.13;;
67156;SDS011;54086;50.126;8.710;2022-11-20T00:02:52;22.48;;;10.52;;
67156;SDS011;54086;50.126;8.710;2022-11-20T00:05:18;22.73;;;11.10;;
67156;SDS011;54086;50.126;8.710;2022-11-20T00:07:44;26.73;;;11.00;;
67156;SDS011;54086;50.126;8.710;2022-11-20T00:10:09;23.60;;;11.00;;
67156;SDS011;54086;50.126;8.710;2022-11-20T00:12:35;23.17;;;10.77;;
67156;SDS011;54086;50.126;8.710;2022-11-20T00:15:00;22.40;;;11.03;;
67156;SDS011;54086;50.126;8.710;2022-11-20T00:17:26;22.70;;;11.20;;
67156;SDS011;54086;50.126;8.710;2022-11-20T00:19:51;25.13;;;11.98;;
67156;SDS011;54086;50.126;8.710;2022-11-20T00:22:16;22.63;;;12.03;;
67156;SDS011;54086;50.126;8.710;2022-11-20T00:24:42;22.90;;;11.90;;
67156;SDS011;54086;50.126;8.710;2022-11-20T00:27:07;25.13;;;12.47;;
67156;SDS011;54086;50.126;8.710;2022-11-20T00:29:32;24.20;;;12.00;;
67156;SDS011;54086;50.126;8.710;2022-11-20T00:31:58;23.87;;;11.13;;
67156;SDS011;54086;50.126;8.710;2022-11-20T00:34:23;23.13;;;10.73;;
67156;SDS011;54086;50.126;8.710;2022-11-20T00:36:48;22.87;;;10.80;;
67156;SDS011;54086;50.126;8.710;2022-11-20T00:39:14;24.80;;;11.50;;
67156;SDS011;54086;50.126;8.710;2022-11-20T00:41:39;25.27;;;11.60;;
67156;SDS011;54086;50.126;8.710;2022-11-20T00:44:04;21.23;;;10.87;;
67156;SDS011;54086;50.126;8.710;2022-11-20T00:46:30;24.00;;;11.90;;
67156;SDS011;54086;50.126;8.710;2022-11-20T00:48:55;24.07;;;11.83;;
67156;SDS011;54086;50.126;8.710;2022-11-20T00:51:21;24.88;;;10.77;;
67156;SDS011;54086;50.126;8.710;2022-11-20T00:53:48;24.93;;;10.77;;
67156;SDS011;54086;50.126;8.710;2022-11-20T00:56:15;21.42;;;10.45;;
67156;SDS011;54086;50.126;8.710;2022-11-20T00:58:42;26.42;;;12.90;;
67156;SDS011;54086;50.126;8.710;2022-11-20T01:01:18;24.33;;;10.95;;
67156;SDS011;54086;50.126;8.710;2022-11-20T01:03:49;22.55;;;10.80;;
67156;SDS011;54086;50.126;8.710;2022-11-20T01:06:22;20.43;;;9.83;;
67156;SDS011;54086;50.126;8.710;2022-11-20T01:08:53;22.13;;;10.05;;
67156;SDS011;54086;50.126;8.710;2022-11-20T01:11:21;23.77;;;11.25;;
67156;SDS011;54086;50.126;8.710;2022-11-20T01:13:49;22.48;;;10.40;;
67156;SDS011;54086;50.126;8.710;2022-11-20T01:16:18;25.83;;;12.52;;
67156;SDS011;54086;50.126;8.710;2022-11-20T01:18:46;21.90;;;11.23;;
67156;SDS011;54086;50.126;8.710;2022-11-20T01:21:31;21.77;;;10.85;;
67156;SDS011;54086;50.126;8.710;2022-11-20T01:23:59;23.38;;;11.77;;
67156;SDS011;54086;50.126;8.710;2022-11-20T01:26:26;22.08;;;10.98;;
67156;SDS011;54086;50.126;8.710;2022-11-20T01:28:54;24.65;;;12.13;;
67156;SDS011;54086;50.126;8.710;2022-11-20T01:31:22;26.53;;;12.27;;
67156;SDS011;54086;50.126;8.710;2022-11-20T01:33:50;23.48;;;11.57;;
67156;SDS011;54086;50.126;8.710;2022-11-20T01:36:16;24.67;;;12.02;;
67156;SDS011;54086;50.126;8.710;2022-11-20T01:38:43;25.00;;;11.82;;
67156;SDS011;54086;50.126;8.710;2022-11-20T01:41:09;25.43;;;12.40;;
67156;SDS011;54086;50.126;8.710;2022-11-20T01:43:56;24.05;;;11.55;;
67156;SDS011;54086;50.126;8.710;2022-11-20T01:46:21;25.93;;;11.47;;
67156;SDS011;54086;50.126;8.710;2022-11-20T01:48:57;24.13;;;11.93;;
67156;SDS011;54086;50.126;8.710;2022-11-20T01:54:11;25.40;;;11.18;;
67156;SDS011;54086;50.126;8.710;2022-11-20T01:56:41;26.63;;;12.38;;
67156;SDS011;54086;50.126;8.710;2022-11-20T01:59:09;27.13;;;12.33;;
67156;SDS011;54086;50.126;8.710;2022-11-20T02:01:37;27.45;;;12.48;;
67156;SDS011;54086;50.126;8.710;2022-11-20T02:04:04;25.38;;;11.82;;
67156;SDS011;54086;50.126;8.710;2022-11-20T02:06:33;28.52;;;12.38;;
67156;SDS011;54086;50.126;8.710;2022-11-20T02:09:03;25.88;;;13.43;;
67156;SDS011;54086;50.126;8.710;2022-11-20T02:11:29;24.93;;;11.67;;
67156;SDS011;54086;50.126;8.710;2022-11-20T02:13:55;24.10;;;11.90;;
67156;SDS011;54086;50.126;8.710;2022-11-20T02:16:25;27.17;;;12.35;;
67156;SDS011;54086;50.126;8.710;2022-11-20T02:18:54;26.53;;;12.07;;
67156;SDS011;54086;50.126;8.710;2022-11-20T02:24:24;28.23;;;13.30;;
67156;SDS011;54086;50.126;8.710;2022-11-20T02:26:51;25.13;;;12.00;;
67156;SDS011;54086;50.126;8.710;2022-11-20T02:29:32;25.80;;;12.65;;
67156;SDS011;54086;50.126;8.710;2022-11-20T02:32:01;27.08;;;11.68;;
67156;SDS011;54086;50.126;8.710;2022-11-20T02:34:36;24.38;;;12.30;;
67156;SDS011;54086;50.126;8.710;2022-11-20T02:37:02;23.33;;;10.93;;
67156;SDS011;54086;50.126;8.710;2022-11-20T02:39:27;26.40;;;12.13;;
67156;SDS011;54086;50.126;8.710;2022-11-20T02:41:53;25.70;;;11.73;;
67156;SDS011;54086;50.126;8.710;2022-11-20T02:44:20;24.08;;;11.85;;
67156;SDS011;54086;50.126;8.710;2022-11-20T02:46:45;23.73;;;11.90;;
67156;SDS011;54086;50.126;8.710;2022-11-20T02:49:11;25.40;;;11.60;;
67156;SDS011;54086;50.126;8.710;2022-11-20T02:51:36;24.00;;;11.93;;
67156;SDS011;54086;50.126;8.710;2022-11-20T02:54:02;24.53;;;11.93;;
67156;SDS011;54086;50.126;8.710;2022-11-20T02:56:27;24.15;;;10.68;;
67156;SDS011;54086;50.126;8.710;2022-11-20T02:58:53;23.00;;;11.17;;
67156;SDS011;54086;50.126;8.710;2022-11-20T03:01:18;24.00;;;11.47;;
67156;SDS011;54086;50.126;8.710;2022-11-20T03:03:44;21.63;;;10.70;;
67156;SDS011;54086;50.126;8.710;2022-11-20T03:06:09;21.57;;;11.00;;
67156;SDS011;54086;50.126;8.710;2022-11-20T03:08:35;25.88;;;11.80;;
67156;SDS011;54086;50.126;8.710;2022-11-20T03:11:04;24.67;;;11.37;;
67156;SDS011;54086;50.126;8.710;2022-11-20T03:13:31;25.63;;;12.30;;
67156;SDS011;54086;50.126;8.710;2022-11-20T03:15:56;22.53;;;10.77;;
67156;SDS011;54086;50.126;8.710;2022-11-20T03:18:21;25.40;;;12.23;;
67156;SDS011;54086;50.126;8.710;2022-11-20T03:20:47;26.90;;;13.13;;
67156;SDS011;54086;50.126;8.710;2022-11-20T03:23:12;25.27;;;11.90;;
67156;SDS011;54086;50.126;8.710;2022-11-20T03:25:37;28.53;;;12.60;;
67156;SDS011;54086;50.126;8.710;2022-11-20T03:28:03;29.13;;;13.53;;
67156;SDS011;54086;50.126;8.710;2022-11-20T03:30:29;25.03;;;11.57;;
67156;SDS011;54086;50.126;8.710;2022-11-20T03:32:54;24.83;;;11.67;;
67156;SDS011;54086;50.126;8.710;2022-11-20T03:35:19;28.80;;;13.00;;
67156;SDS011;54086;50.126;8.710;2022-11-20T03:37:45;28.00;;;12.80;;
67156;SDS011;54086;50.126;8.710;2022-11-20T03:40:11;26.75;;;12.13;;
67156;SDS011;54086;50.126;8.710;2022-11-20T03:42:36;28.10;;;13.07;;
67156;SDS011;54086;50.126;8.710;2022-11-20T03:45:11;27.88;;;12.85;;
67156;SDS011;54086;50.126;8.710;2022-11-20T03:47:38;26.90;;;13.00;;
67156;SDS011;54086;50.126;8.710;2022-11-20T03:50:03;29.70;;;13.23;;
67156;SDS011;54086;50.126;8.710;2022-11-20T03:52:29;25.58;;;12.35;;
67156;SDS011;54086;50.126;8.710;2022-11-20T03:54:55;28.60;;;13.60;;
67156;SDS011;54086;50.126;8.710;2022-11-20T03:57:20;25.53;;;11.70;;
67156;SDS011;54086;50.126;8.710;2022-11-20T03:59:45;24.38;;;11.52;;
67156;SDS011;54086;50.126;8.710;2022-11-20T04:02:11;29.37;;;12.57;;
67156;SDS011;54086;50.126;8.710;2022-11-20T04:04:36;24.97;;;10.73;;
67156;SDS011;54086;50.126;8.710;2022-11-20T04:07:02;25.47;;;11.63;;
67156;SDS011;54086;50.126;8.710;2022-11-20T04:09:27;27.48;;;11.27;;
67156;SDS011;54086;50.126;8.710;2022-11-20T04:11:53;25.65;;;11.75;;
67156;SDS011;54086;50.126;8.710;2022-11-20T04:14:18;27.53;;;11.77;;
67156;SDS011;54086;50.126;8.710;2022-11-20T04:16:45;25.73;;;12.07;;
67156;SDS011;54086;50.126;8.710;2022-11-20T04:19:12;26.40;;;12.10;;
67156;SDS011;54086;50.126;8.710;2022-11-20T04:21:39;27.92;;;12.23;;
67156;SDS011;54086;50.126;8.710;2022-11-20T04:24:05;26.40;;;12.13;;
67156;SDS011;54086;50.126;8.710;2022-11-20T04:26:31;24.08;;;10.90;;
67156;SDS011;54086;50.126;8.710;2022-11-20T04:28:56;24.90;;;11.40;;
67156;SDS011;54086;50.126;8.710;2022-11-20T04:31:24;26.60;;;12.63;;
67156;SDS011;54086;50.126;8.710;2022-11-20T04:33:51;26.90;;;12.00;;
67156;SDS011;54086;50.126;8.710;2022-11-20T04:36:18;27.33;;;13.38;;
67156;SDS011;54086;50.126;8.710;2022-11-20T04:38:51;27.33;;;13.07;;
67156;SDS011;54086;50.126;8.710;2022-11-20T04:41:18;25.43;;;12.27;;
67156;SDS011;54086;50.126;8.710;2022-11-20T04:43:48;27.05;;;12.82;;
67156;SDS011;54086;50.126;8.710;2022-11-20T04:46:14;27.80;;;13.80;;
67156;SDS011;54086;50.126;8.710;2022-11-20T04:48:41;27.70;;;12.88;;
67156;SDS011;54086;50.126;8.710;2022-11-20T04:51:06;28.10;;;12.30;;
67156;SDS011;54086;50.126;8.710;2022-11-20T04:53:31;26.20;;;11.63;;
67156;SDS011;54086;50.126;8.710;2022-11-20T04:56:00;26.42;;;12.40;;
67156;SDS011;54086;50.126;8.710;2022-11-20T04:58:29;28.10;;;12.83;;
67156;SDS011;54086;50.126;8.710;2022-11-20T05:01:09;25.83;;;11.73;;
67156;SDS011;54086;50.126;8.710;2022-11-20T05:03:38;28.17;;;13.27;;
67156;SDS011;54086;50.126;8.710;2022-11-20T05:06:05;26.83;;;12.57;;
67156;SDS011;54086;50.126;8.710;2022-11-20T05:08:31;28.10;;;12.80;;
67156;SDS011;54086;50.126;8.710;2022-11-20T05:11:03;27.93;;;12.17;;
67156;SDS011;54086;50.126;8.710;2022-11-20T05:13:33;27.38;;;12.38;;
67156;SDS011;54086;50.126;8.710;2022-11-20T05:16:02;28.07;;;12.67;;
67156;SDS011;54086;50.126;8.710;2022-11-20T05:18:29;27.27;;;13.80;;
67156;SDS011;54086;50.126;8.710;2022-11-20T05:20:55;25.07;;;11.03;;
67156;SDS011;54086;50.126;8.710;2022-11-20T05:23:24;34.47;;;13.40;;
67156;SDS011;54086;50.126;8.710;2022-11-20T05:25:53;29.15;;;12.55;;
67156;SDS011;54086;50.126;8.710;2022-11-20T05:28:20;27.33;;;12.48;;
67156;SDS011;54086;50.126;8.710;2022-11-20T05:30:45;33.10;;;13.47;;
67156;SDS011;54086;50.126;8.710;2022-11-20T05:33:10;30.47;;;13.17;;
67156;SDS011;54086;50.126;8.710;2022-11-20T05:35:36;34.97;;;14.23;;
67156;SDS011;54086;50.126;8.710;2022-11-20T05:38:01;31.93;;;13.37;;
67156;SDS011;54086;50.126;8.710;2022-11-20T05:40:26;32.27;;;13.33;;
67156;SDS011;54086;50.126;8.710;2022-11-20T05:42:52;30.80;;;14.37;;
67156;SDS011;54086;50.126;8.710;2022-11-20T05:45:17;34.83;;;13.83;;
67156;SDS011;54086;50.126;8.710;2022-11-20T05:47:42;33.30;;;14.73;;
67156;SDS011;54086;50.126;8.710;2022-11-20T05:50:08;28.95;;;12.93;;
67156;SDS011;54086;50.126;8.710;2022-11-20T05:52:33;25.30;;;11.73;;
67156;SDS011;54086;50.126;8.710;2022-11-20T05:54:58;26.83;;;12.73;;
67156;SDS011;54086;50.126;8.710;2022-11-20T05:57:36;31.10;;;13.90;;
67156;SDS011;54086;50.126;8.710;2022-11-20T06:00:02;31.70;;;14.02;;
67156;SDS011;54086;50.126;8.710;2022-11-20T06:02:28;30.77;;;13.57;;
67156;SDS011;54086;50.126;8.710;2022-11-20T06:04:53;33.47;;;14.07;;
67156;SDS011;54086;50.126;8.710;2022-11-20T06:07:19;28.27;;;12.97;;
67156;SDS011;54086;50.126;8.710;2022-11-20T06:09:44;30.03;;;13.40;;
67156;SDS011;54086;50.126;8.710;2022-11-20T06:12:09;28.17;;;13.20;;
67156;SDS011;54086;50.126;8.710;2022-11-20T06:14:35;27.50;;;13.15;;
67156;SDS011;54086;50.126;8.710;2022-11-20T06:17:00;29.90;;;12.63;;
67156;SDS011;54086;50.126;8.710;2022-11-20T06:19:26;28.90;;;12.37;;
67156;SDS011;54086;50.126;8.710;2022-11-20T06:21:51;33.17;;;13.60;;
67156;SDS011;54086;50.126;8.710;2022-11-20T06:24:16;29.40;;;12.50;;
67156;SDS011;54086;50.126;8.710;2022-11-20T06:26:42;30.92;;;12.57;;
67156;SDS011;54086;50.126;8.710;2022-11-20T06:29:08;33.80;;;14.30;;
67156;SDS011;54086;50.126;8.710;2022-11-20T06:31:33;29.67;;;13.32;;
67156;SDS011;54086;50.126;8.710;2022-11-20T06:34:02;31.20;;;14.20;;
67156;SDS011;54086;50.126;8.710;2022-11-20T06:36:31;30.73;;;12.93;;
67156;SDS011;54086;50.126;8.710;2022-11-20T06:38:56;32.22;;;14.52;;
67156;SDS011;54086;50.126;8.710;2022-11-20T06:41:22;33.50;;;13.30;;
67156;SDS011;54086;50.126;8.710;2022-11-20T06:43:47;35.50;;;13.53;;
67156;SDS011;54086;50.126;8.710;2022-11-20T06:46:13;35.08;;;13.77;;
67156;SDS011;54086;50.126;8.710;2022-11-20T06:48:42;33.15;;;13.32;;
67156;SDS011;54086;50.126;8.710;2022-11-20T06:51:07;35.80;;;13.70;;
67156;SDS011;54086;50.126;8.710;2022-11-20T06:53:34;34.53;;;13.73;;
67156;SDS011;54086;50.126;8.710;2022-11-20T06:55:59;35.17;;;13.20;;
67156;SDS011;54086;50.126;8.710;2022-11-20T06:58:28;38.00;;;14.43;;
67156;SDS011;54086;50.126;8.710;2022-11-20T07:01:04;32.42;;;13.90;;
67156;SDS011;54086;50.126;8.710;2022-11-20T07:03:32;37.75;;;14.63;;
67156;SDS011;54086;50.126;8.710;2022-11-20T07:05:57;37.00;;;14.97;;
67156;SDS011;54086;50.126;8.710;2022-11-20T07:08:24;36.22;;;14.43;;
67156;SDS011;54086;50.126;8.710;2022-11-20T07:10:50;34.67;;;14.43;;
67156;SDS011;54086;50.126;8.710;2022-11-20T07:13:15;40.92;;;14.60;;
67156;SDS011;54086;50.126;8.710;2022-11-20T07:15:41;40.13;;;14.27;;
67156;SDS011;54086;50.126;8.710;2022-11-20T07:18:06;44.53;;;16.33;;
67156;SDS011;54086;50.126;8.710;2022-11-20T07:20:31;39.47;;;14.13;;
67156;SDS011;54086;50.126;8.710;2022-11-20T07:22:57;40.33;;;16.47;;
67156;SDS011;54086;50.126;8.710;2022-11-20T07:25:23;41.55;;;15.98;;
67156;SDS011;54086;50.126;8.710;2022-11-20T07:27:50;40.63;;;16.27;;
67156;SDS011;54086;50.126;8.710;2022-11-20T07:30:15;45.00;;;16.07;;
67156;SDS011;54086;50.126;8.710;2022-11-20T07:32:41;39.88;;;15.35;;
67156;SDS011;54086;50.126;8.710;2022-11-20T07:35:06;37.73;;;15.27;;
67156;SDS011;54086;50.126;8.710;2022-11-20T07:37:35;35.90;;;15.03;;
67156;SDS011;54086;50.126;8.710;2022-11-20T07:40:01;42.88;;;14.77;;
67156;SDS011;54086;50.126;8.710;2022-11-20T07:42:26;43.83;;;16.60;;
67156;SDS011;54086;50.126;8.710;2022-11-20T07:44:52;40.35;;;15.05;;
67156;SDS011;54086;50.126;8.710;2022-11-20T07:47:17;37.50;;;15.53;;
67156;SDS011;54086;50.126;8.710;2022-11-20T07:49:42;37.33;;;14.90;;
67156;SDS011;54086;50.126;8.710;2022-11-20T07:52:07;35.63;;;13.63;;
67156;SDS011;54086;50.126;8.710;2022-11-20T07:54:33;34.13;;;14.87;;
67156;SDS011;54086;50.126;8.710;2022-11-20T07:56:58;42.00;;;16.10;;
67156;SDS011;54086;50.126;8.710;2022-11-20T07:59:23;36.83;;;15.00;;
67156;SDS011;54086;50.126;8.710;2022-11-20T08:01:49;39.30;;;14.93;;
67156;SDS011;54086;50.126;8.710;2022-11-20T08:04:14;38.40;;;15.73;;
67156;SDS011;54086;50.126;8.710;2022-11-20T08:06:41;38.28;;;15.40;;
67156;SDS011;54086;50.126;8.710;2022-11-20T08:09:06;37.37;;;15.07;;
67156;SDS011;54086;50.126;8.710;2022-11-20T08:11:32;36.77;;;15.23;;
67156;SDS011;54086;50.126;8.710;2022-11-20T08:14:16;37.30;;;14.75;;
67156;SDS011;54086;50.126;8.710;2022-11-20T08:16:45;40.77;;;16.33;;
67156;SDS011;54086;50.126;8.710;2022-11-20T08:19:12;39.03;;;15.80;;
67156;SDS011;54086;50.126;8.710;2022-11-20T08:21:39;39.08;;;15.88;;
67156;SDS011;54086;50.126;8.710;2022-11-20T08:24:05;44.05;;;15.40;;
67156;SDS011;54086;50.126;8.710;2022-11-20T08:26:31;32.63;;;14.30;;
67156;SDS011;54086;50.126;8.710;2022-11-20T08:28:57;35.33;;;14.57;;
67156;SDS011;54086;50.126;8.710;2022-11-20T08:31:23;37.38;;;15.27;;
67156;SDS011;54086;50.126;8.710;2022-11-20T08:33:50;39.97;;;16.38;;
67156;SDS011;54086;50.126;8.710;2022-11-20T08:36:15;37.53;;;15.60;;
67156;SDS011;54086;50.126;8.710;2022-11-20T08:38:41;37.23;;;14.80;;
67156;SDS011;54086;50.126;8.710;2022-11-20T08:41:07;42.10;;;15.57;;
67156;SDS011;54086;50.126;8.710;2022-11-20T08:43:52;37.53;;;15.30;;
67156;SDS011;54086;50.126;8.710;2022-11-20T08:46:20;35.25;;;14.25;;
67156;SDS011;54086;50.126;8.710;2022-11-20T08:48:46;34.75;;;13.98;;
67156;SDS011;54086;50.126;8.710;2022-11-20T08:51:12;36.40;;;14.60;;
67156;SDS011;54086;50.126;8.710;2022-11-20T08:53:38;38.60;;;15.20;;
67156;SDS011;54086;50.126;8.710;2022-11-20T08:56:04;36.90;;;16.25;;
67156;SDS011;54086;50.126;8.710;2022-11-20T08:58:30;36.53;;;14.87;;
67156;SDS011;54086;50.126;8.710;2022-11-20T09:00:55;36.67;;;15.82;;
67156;SDS011;54086;50.126;8.710;2022-11-20T09:03:21;40.07;;;14.40;;
67156;SDS011;54086;50.126;8.710;2022-11-20T09:05:46;39.30;;;16.63;;
67156;SDS011;54086;50.126;8.710;2022-11-20T09:08:12;32.22;;;14.52;;
67156;SDS011;54086;50.126;8.710;2022-11-20T09:10:37;38.37;;;15.60;;
67156;SDS011;54086;50.126;8.710;2022-11-20T09:13:05;37.75;;;15.18;;
67156;SDS011;54086;50.126;8.710;2022-11-20T09:15:31;35.97;;;15.40;;
67156;SDS011;54086;50.126;8.710;2022-11-20T09:17:58;39.80;;;17.50;;
67156;SDS011;54086;50.126;8.710;2022-11-20T09:20:26;39.00;;;16.00;;
67156;SDS011;54086;50.126;8.710;2022-11-20T09:22:54;37.30;;;16.45;;
67156;SDS011;54086;50.126;8.710;2022-11-20T09:25:20;38.30;;;16.20;;
67156;SDS011;54086;50.126;8.710;2022-11-20T09:27:45;36.60;;;16.13;;
67156;SDS011;54086;50.126;8.710;2022-11-20T09:30:12;39.47;;;17.50;;
67156;SDS011;54086;50.126;8.710;2022-11-20T09:32:38;35.90;;;16.15;;
67156;SDS011;54086;50.126;8.710;2022-11-20T09:35:04;35.40;;;16.55;;
67156;SDS011;54086;50.126;8.710;2022-11-20T09:37:29;37.67;;;15.53;;
67156;SDS011;54086;50.126;8.710;2022-11-20T09:39:55;38.90;;;15.77;;
67156;SDS011;54086;50.126;8.710;2022-11-20T09:48:29;33.60;;;16.23;;
67156;SDS011;54086;50.126;8.710;2022-11-20T09:53:52;30.77;;;14.18;;
67156;SDS011;54086;50.126;8.710;2022-11-20T09:56:41;34.77;;;15.17;;
67156;SDS011;54086;50.126;8.710;2022-11-20T09:59:20;32.70;;;14.63;;
67156;SDS011;54086;50.126;8.710;2022-11-20T10:01:54;35.15;;;16.55;;
67156;SDS011;54086;50.126;8.710;2022-11-20T10:04:20;33.28;;;14.80;;
67156;SDS011;54086;50.126;8.710;2022-11-20T10:06:50;33.03;;;15.68;;
67156;SDS011;54086;50.126;8.710;2022-11-20T10:09:40;29.47;;;13.87;;
67156;SDS011;54086;50.126;8.710;2022-11-20T10:15:52;36.10;;;15.50;;
67156;SDS011;54086;50.126;8.710;2022-11-20T10:18:40;33.42;;;15.82;;
67156;SDS011;54086;50.126;8.710;2022-11-20T10:29:17;39.43;;;16.00;;
67156;SDS011;54086;50.126;8.710;2022-11-20T10:31:48;36.38;;;15.85;;
67156;SDS011;54086;50.126;8.710;2022-11-20T10:34:26;35.47;;;15.73;;
67156;SDS011;54086;50.126;8.710;2022-11-20T10:37:16;34.72;;;15.98;;
67156;SDS011;54086;50.126;8.710;2022-11-20T10:42:27;31.30;;;14.57;;
67156;SDS011;54086;50.126;8.710;2022-11-20T10:44:58;35.25;;;15.25;;
67156;SDS011;54086;50.126;8.710;2022-11-20T10:47:34;34.08;;;16.13;;
67156;SDS011;54086;50.126;8.710;2022-11-20T10:50:04;33.42;;;15.43;;
67156;SDS011;54086;50.126;8.710;2022-11-20T10:52:42;31.43;;;13.93;;
67156;SDS011;54086;50.126;8.710;2022-11-20T11:00:20;28.88;;;13.38;;
67156;SDS011;54086;50.126;8.710;2022-11-20T11:02:47;31.73;;;13.53;;
67156;SDS011;54086;50.126;8.710;2022-11-20T11:05:18;35.30;;;14.55;;
67156;SDS011;54086;50.126;8.710;2022-11-20T11:08:10;32.05;;;15.38;;
67156;SDS011;54086;50.126;8.710;2022-11-20T11:10:48;34.10;;;16.10;;
67156;SDS011;54086;50.126;8.710;2022-11-20T11:13:23;37.50;;;16.48;;
67156;SDS011;54086;50.126;8.710;2022-11-20T11:15:50;34.00;;;15.73;;
67156;SDS011;54086;50.126;8.710;2022-11-20T11:18:30;32.03;;;14.63;;
67156;SDS011;54086;50.126;8.710;2022-11-20T11:21:00;31.02;;;14.30;;
67156;SDS011;54086;50.126;8.710;2022-11-20T11:26:02;33.90;;;15.55;;
67156;SDS011;54086;50.126;8.710;2022-11-20T11:28:30;34.90;;;15.87;;
67156;SDS011;54086;50.126;8.710;2022-11-20T11:30:56;34.75;;;15.73;;
67156;SDS011;54086;50.126;8.710;2022-11-20T11:33:22;37.37;;;15.70;;
67156;SDS011;54086;50.126;8.710;2022-11-20T11:35:56;33.20;;;16.30;;
67156;SDS011;54086;50.126;8.710;2022-11-20T11:38:32;37.50;;;17.10;;
67156;SDS011;54086;50.126;8.710;2022-11-20T11:41:03;38.08;;;17.70;;
67156;SDS011;54086;50.126;8.710;2022-11-20T11:43:32;40.37;;;17.97;;
67156;SDS011;54086;50.126;8.710;2022-11-20T11:46:25;37.33;;;16.77;;
67156;SDS011;54086;50.126;8.710;2022-11-20T11:49:01;35.25;;;16.35;;
67156;SDS011;54086;50.126;8.710;2022-11-20T12:05:30;36.70;;;15.85;;
67156;SDS011;54086;50.126;8.710;2022-11-20T12:08:04;36.35;;;16.13;;
67156;SDS011;54086;50.126;8.710;2022-11-20T12:10:53;34.13;;;15.20;;
67156;SDS011;54086;50.126;8.710;2022-11-20T12:15:59;33.92;;;15.98;;
67156;SDS011;54086;50.126;8.710;2022-11-20T12:18:25;33.72;;;16.33;;
67156;SDS011;54086;50.126;8.710;2022-11-20T12:25:56;29.20;;;13.93;;
67156;SDS011;54086;50.126;8.710;2022-11-20T12:28:38;31.65;;;13.77;;
67156;SDS011;54086;50.126;8.710;2022-11-20T12:33:54;33.08;;;15.35;;
67156;SDS011;54086;50.126;8.710;2022-11-20T12:36:59;32.73;;;13.77;;
67156;SDS011;54086;50.126;8.710;2022-11-20T12:39:41;31.50;;;15.02;;
67156;SDS011;54086;50.126;8.710;2022-11-20T12:45:02;30.02;;;13.80;;
67156;SDS011;54086;50.126;8.710;2022-11-20T12:50:28;31.20;;;14.70;;
67156;SDS011;54086;50.126;8.710;2022-11-20T12:56:04;36.55;;;15.80;;
67156;SDS011;54086;50.126;8.710;2022-11-20T13:01:44;35.78;;;16.50;;
67156;SDS011;54086;50.126;8.710;2022-11-20T13:07:12;34.88;;;14.63;;
67156;SDS011;54086;50.126;8.710;2022-11-20T13:09:46;36.70;;;16.15;;
67156;SDS011;54086;50.126;8.710;2022-11-20T13:18:11;34.47;;;15.37;;
67156;SDS011;54086;50.126;8.710;2022-11-20T13:20:40;34.13;;;15.32;;
67156;SDS011;54086;50.126;8.710;2022-11-20T13:23:08;36.10;;;16.45;;
67156;SDS011;54086;50.126;8.710;2022-11-20T13:25:34;32.70;;;14.90;;
67156;SDS011;54086;50.126;8.710;2022-11-20T13:28:03;35.67;;;16.80;;
67156;SDS011;54086;50.126;8.710;2022-11-20T13:30:49;36.38;;;16.42;;
67156;SDS011;54086;50.126;8.710;2022-11-20T13:36:03;37.03;;;16.40;;
67156;SDS011;54086;50.126;8.710;2022-11-20T13:38:40;35.78;;;16.90;;
67156;SDS011;54086;50.126;8.710;2022-11-20T13:41:09;32.70;;;14.75;;
67156;SDS011;54086;50.126;8.710;2022-11-20T13:43:53;32.17;;;14.50;;
67156;SDS011;54086;50.126;8.710;2022-11-20T13:46:23;33.33;;;15.07;;
67156;SDS011;54086;50.126;8.710;2022-11-20T13:48:49;35.23;;;15.77;;
67156;SDS011;54086;50.126;8.710;2022-11-20T14:02:26;29.63;;;13.27;;
67156;SDS011;54086;50.126;8.710;2022-11-20T14:04:54;28.98;;;12.95;;
67156;SDS011;54086;50.126;8.710;2022-11-20T14:07:25;29.83;;;14.05;;
67156;SDS011;54086;50.126;8.710;2022-11-20T14:10:02;27.95;;;13.55;;
67156;SDS011;54086;50.126;8.710;2022-11-20T14:12:32;30.65;;;13.50;;
67156;SDS011;54086;50.126;8.710;2022-11-20T14:14:59;28.17;;;13.33;;
67156;SDS011;54086;50.126;8.710;2022-11-20T14:19:58;28.75;;;13.27;;
67156;SDS011;54086;50.126;8.710;2022-11-20T14:22:36;26.75;;;12.85;;
67156;SDS011;54086;50.126;8.710;2022-11-20T14:27:39;24.63;;;12.30;;
67156;SDS011;54086;50.126;8.710;2022-11-20T14:30:11;26.40;;;11.85;;
67156;SDS011;54086;50.126;8.710;2022-11-20T14:32:42;24.88;;;11.70;;
67156;SDS011;54086;50.126;8.710;2022-11-20T14:35:10;25.17;;;12.60;;
67156;SDS011;54086;50.126;8.710;2022-11-20T14:37:43;27.13;;;12.30;;
67156;SDS011;54086;50.126;8.710;2022-11-20T14:42:48;25.35;;;11.82;;
67156;SDS011;54086;50.126;8.710;2022-11-20T14:45:13;24.30;;;12.40;;
67156;SDS011;54086;50.126;8.710;2022-11-20T14:47:39;24.98;;;11.65;;
67156;SDS011;54086;50.126;8.710;2022-11-20T14:50:07;24.83;;;11.32;;
67156;SDS011;54086;50.126;8.710;2022-11-20T14:52:39;27.63;;;12.07;;
67156;SDS011;54086;50.126;8.710;2022-11-20T14:55:24;28.52;;;12.43;;
67156;SDS011;54086;50.126;8.710;2022-11-20T14:57:58;24.77;;;11.33;;
67156;SDS011;54086;50.126;8.710;2022-11-20T15:00:26;25.88;;;12.35;;
67156;SDS011;54086;50.126;8.710;2022-11-20T15:02:52;25.58;;;11.50;;
67156;SDS011;54086;50.126;8.710;2022-11-20T15:05:18;29.52;;;12.15;;
67156;SDS011;54086;50.126;8.710;2022-11-20T15:08:04;26.63;;;13.37;;
67156;SDS011;54086;50.126;8.710;2022-11-20T15:10:32;25.75;;;11.90;;
67156;SDS011;54086;50.126;8.710;2022-11-20T15:13:01;27.98;;;13.45;;
67156;SDS011;54086;50.126;8.710;2022-11-20T15:18:00;29.17;;;12.05;;
67156;SDS011;54086;50.126;8.710;2022-11-20T15:20:27;27.60;;;12.13;;
67156;SDS011;54086;50.126;8.710;2022-11-20T15:22:55;25.38;;;12.00;;
67156;SDS011;54086;50.126;8.710;2022-11-20T15:25:21;26.13;;;12.47;;
67156;SDS011;54086;50.126;8.710;2022-11-20T15:27:47;26.87;;;12.77;;
67156;SDS011;54086;50.126;8.710;2022-11-20T15:30:19;25.65;;;11.82;;
67156;SDS011;54086;50.126;8.710;2022-11-20T15:32:49;30.08;;;13.30;;
67156;SDS011;54086;50.126;8.710;2022-11-20T15:35:15;28.70;;;14.80;;
67156;SDS011;54086;50.126;8.710;2022-11-20T15:37:41;29.88;;;14.00;;
67156;SDS011;54086;50.126;8.710;2022-11-20T15:40:07;29.93;;;13.47;;
67156;SDS011;54086;50.126;8.710;2022-11-20T15:42:34;29.00;;;13.73;;
67156;SDS011;54086;50.126;8.710;2022-11-20T15:45:00;28.38;;;13.93;;
67156;SDS011;54086;50.126;8.710;2022-11-20T15:47:29;30.33;;;13.47;;
67156;SDS011;54086;50.126;8.710;2022-11-20T15:49:57;29.85;;;13.70;;
67156;SDS011;54086;50.126;8.710;2022-11-20T15:52:22;25.77;;;12.37;;
67156;SDS011;54086;50.126;8.710;2022-11-20T15:54:48;28.33;;;14.13;;
67156;SDS011;54086;50.126;8.710;2022-11-20T15:57:13;27.27;;;12.57;;
67156;SDS011;54086;50.126;8.710;2022-11-20T15:59:39;28.20;;;14.00;;
67156;SDS011;54086;50.126;8.710;2022-11-20T16:02:10;26.45;;;12.88;;
67156;SDS011;54086;50.126;8.710;2022-11-20T16:04:36;27.00;;;12.63;;
67156;SDS011;54086;50.126;8.710;2022-11-20T16:07:01;25.13;;;12.43;;
67156;SDS011;54086;50.126;8.710;2022-11-20T16:09:27;24.70;;;11.37;;
67156;SDS011;54086;50.126;8.710;2022-11-20T16:11:52;24.83;;;12.50;;
67156;SDS011;54086;50.126;8.710;2022-11-20T16:14:18;26.00;;;12.97;;